Time;durP1;ratioP1;P1;durP2;ratioP2;P2;SDS_P1;SDS_P2;PMS_P1;PMS_P2;Temp;Humidity;BMP_temperature;BMP_pressure;BME280_temperature;BME280_humidity;BME280_pressure;Samples;Min_cycle;Max_cycle;Signal;HPM_P1;HPM_P2
2021/08/15 00:00:04;;;;;;;10.93;4.75;;;;;;;;;;6129385;23;20006;-96
2021/08/15 00:02:30;;;;;;;10.38;4.90;;;;;;;;;;6128781;23;20033;-95
2021/08/15 00:04:56;;;;;;;10.23;4.40;;;;;;;;;;6128940;23;20002;-94
2021/08/15 00:07:22;;;;;;;8.10;3.67;;;;;;;;;;6127617;23;20014;-95
2021/08/15 00:09:48;;;;;;;11.95;3.78;;;;;;;;;;6128609;23;20006;-95
2021/08/15 00:12:15;;;;;;;11.75;3.80;;;;;;;;;;6129348;23;20010;-95
2021/08/15 00:14:41;;;;;;;8.35;3.58;;;;;;;;;;6129847;23;20033;-95
2021/08/15 00:17:08;;;;;;;11.25;5.28;;;;;;;;;;6128460;23;20018;-95
2021/08/15 00:19:34;;;;;;;;;;;25.70;72.60;;;;;;6128704;23;20002;-95
2021/08/15 00:22:00;;;;;;;5.10;3.50;;;;;;;;;;6129363;23;19943;-95
2021/08/15 00:24:26;;;;;;;7.80;3.75;;;;;;;;;;6128640;23;20006;-96
2021/08/15 00:26:52;;;;;;;11.13;3.63;;;;;;;;;;6128230;23;20006;-96
2021/08/15 00:29:18;;;;;;;14.52;4.55;;;;;;;;;;6127024;23;20006;-95
2021/08/15 00:31:44;;;;;;;8.55;3.72;;;;;;;;;;6128612;23;20512;-94
2021/08/15 00:34:10;;;;;;;8.65;3.95;;;;;;;;;;6128981;23;20002;-95
2021/08/15 00:36:37;;;;;;;7.75;3.90;;;;;;;;;;6128824;23;20006;-96
2021/08/15 00:39:03;;;;;;;21.33;4.28;;;;;;;;;;6127907;23;20437;-96
2021/08/15 00:41:29;;;;;;;7.25;2.50;;;;;;;;;;6127021;23;20002;-94
2021/08/15 00:43:55;;;;;;;10.50;3.95;;;;;;;;;;6127989;23;20010;-96
2021/08/15 00:46:22;;;;;;;7.72;2.95;;;;;;;;;;6127069;23;20089;-95
2021/08/15 00:48:49;;;;;;;9.90;3.00;;;;;;;;;;6129337;23;20010;-95
2021/08/15 00:51:15;;;;;;;6.55;3.67;;;;;;;;;;6128095;23;20057;-96
2021/08/15 00:53:41;;;;;;;9.60;3.50;;;;;;;;;;6127700;23;20006;-95
2021/08/15 00:56:08;;;;;;;7.75;3.25;;;;;;;;;;6127976;23;20009;-95
2021/08/15 00:58:34;;;;;;;8.65;3.03;;;;;;;;;;6130361;23;20052;-95
2021/08/15 01:01:07;;;;;;;6.43;3.55;;;;;;;;;;6128797;23;20141;-96
2021/08/15 01:03:34;;;;;;;7.75;4.43;;;;;;;;;;6129395;23;20471;-96
2021/08/15 01:06:01;;;;;;;10.73;3.40;;;;;;;;;;6129913;23;20010;-95
2021/08/15 01:08:28;;;;;;;13.27;3.42;;;;;;;;;;6131027;23;20085;-96
2021/08/15 01:10:54;;;;;;;;;;;25.50;72.50;;;;;;6130086;23;20029;-96
2021/08/15 01:13:20;;;;;;;11.27;3.22;;;;;;;;;;6103907;23;19908;-96
2021/08/15 01:15:46;;;;;;;9.95;3.80;;;;;;;;;;6129290;23;20006;-94
2021/08/15 01:18:18;;;;;;;14.77;4.10;;;;;;;;;;6130153;23;20022;-96
2021/08/15 01:20:44;;;;;;;8.02;3.58;;;;;;;;;;6131744;23;20006;-96
2021/08/15 01:23:11;;;;;;;20.00;5.93;;;;;;;;;;6131983;23;20016;-95
2021/08/15 01:25:38;;;;;;;11.00;3.75;;;;;;;;;;6132209;23;20025;-96
2021/08/15 01:28:05;;;;;;;8.10;3.25;;;;;;;;;;6108067;23;20088;-95
2021/08/15 01:30:33;;;;;;;8.75;3.80;;;;;;;;;;6129062;23;20013;-96
2021/08/15 01:32:59;;;;;;;10.73;4.35;;;;;;;;;;6130541;23;20072;-95
2021/08/15 01:35:25;;;;;;;11.43;3.65;;;;;;;;;;6131704;23;20045;-96
2021/08/15 01:37:59;;;;;;;6.18;4.03;;;;;;;;;;6132299;23;20085;-96
2021/08/15 01:40:25;;;;;;;17.08;3.30;;;;;;;;;;6132144;23;20013;-96
2021/08/15 01:42:51;;;;;;;17.75;3.63;;;;;;;;;;6128757;23;20013;-95
2021/08/15 01:45:17;;;;;;;11.55;4.32;;;;;;;;;;6128268;23;20024;-96
2021/08/15 01:47:44;;;;;;;11.90;5.45;;;;;;;;;;6129390;23;20006;-96
2021/08/15 01:50:10;;;;;;;8.70;4.00;;;;;;;;;;6130799;23;20006;-96
2021/08/15 01:52:36;;;;;;;12.65;4.25;;;;;;;;;;6131750;23;20013;-96
2021/08/15 01:55:04;;;;;;;13.30;3.75;;;;;;;;;;6129941;23;20002;-96
2021/08/15 01:57:30;;;;;;;4.97;3.88;;;;;;;;;;6130131;23;20010;-96
2021/08/15 01:59:59;;;;;;;6.10;3.05;;;;;;;;;;6130908;23;19998;-95
2021/08/15 02:02:25;;;;;;;13.63;4.88;;;;;;;;;;6106009;23;20022;-96
2021/08/15 02:04:51;;;;;;;7.78;3.42;;;;;;;;;;6129962;23;20009;-95
2021/08/15 02:07:17;;;;;;;13.15;4.68;;;;;;;;;;6127933;23;20394;-96
2021/08/15 02:09:44;;;;;;;9.15;4.20;;;;;;;;;;6127980;23;20010;-95
2021/08/15 02:12:10;;;;;;;;;;;25.00;74.00;;;;;;6127486;23;20009;-95
2021/08/15 02:14:36;;;;;;;7.35;3.92;;;;;;;;;;6105752;23;19908;-95
2021/08/15 02:17:02;;;;;;;9.45;3.58;;;;;;;;;;6129208;23;20006;-95
2021/08/15 02:19:28;;;;;;;4.32;3.20;;;;;;;;;;6128717;23;20006;-94
2021/08/15 02:21:54;;;;;;;30.80;4.32;;;;;;;;;;6129303;23;20025;-96
2021/08/15 02:24:20;;;;;;;7.95;3.78;;;;;;;;;;6129007;23;20006;-94
2021/08/15 02:26:46;;;;;;;9.57;4.45;;;;;;;;;;6128301;23;20006;-96
2021/08/15 02:29:12;;;;;;;18.13;5.45;;;;;;;;;;6130355;23;20081;-96
2021/08/15 02:31:38;;;;;;;9.68;5.05;;;;;;;;;;6127081;23;20010;-96
2021/08/15 02:34:04;;;;;;;10.27;4.35;;;;;;;;;;6127738;23;20057;-96
2021/08/15 02:36:30;;;;;;;8.70;4.32;;;;;;;;;;6129750;23;20028;-95
2021/08/15 02:38:56;;;;;;;9.43;4.05;;;;;;;;;;6131351;23;20058;-95
2021/08/15 02:41:22;;;;;;;6.55;3.50;;;;;;;;;;6137732;23;20009;-96
2021/08/15 02:43:49;;;;;;;17.65;6.10;;;;;;;;;;6134006;23;20018;-96
2021/08/15 02:46:15;;;;;;;11.60;4.35;;;;;;;;;;6131974;23;20002;-95
2021/08/15 02:48:41;;;;;;;8.02;3.70;;;;;;;;;;6132108;23;20005;-95
2021/08/15 02:51:07;;;;;;;8.95;4.50;;;;;;;;;;6132667;23;20333;-94
2021/08/15 02:53:33;;;;;;;10.15;4.28;;;;;;;;;;6132817;23;20009;-94
2021/08/15 02:55:59;;;;;;;14.48;4.03;;;;;;;;;;6109146;23;20021;-95
2021/08/15 02:58:25;;;;;;;10.90;4.00;;;;;;;;;;6130516;23;20010;-96
2021/08/15 03:00:53;;;;;;;10.40;3.92;;;;;;;;;;6133129;23;20033;-95
2021/08/15 03:03:19;;;;;;;10.98;4.82;;;;;;;;;;6133359;23;20018;-96
2021/08/15 03:05:46;;;;;;;13.02;6.57;;;;;;;;;;6113083;23;20022;-96
2021/08/15 03:08:13;;;;;;;6.60;4.22;;;;;;;;;;6138817;23;20006;-95
2021/08/15 03:10:40;;;;;;;10.13;3.53;;;;;;;;;;6132919;23;20017;-96
2021/08/15 03:13:09;;;;;;;6.70;4.05;;;;;;;;;;6136151;23;20012;-96
2021/08/15 03:15:38;;;;;;;5.85;3.78;;;;;;;;;;6109273;23;20073;-95
2021/08/15 03:18:04;;;;;;;10.10;3.80;;;;;;;;;;6136702;23;20041;-96
2021/08/15 03:20:32;;;;;;;14.38;3.67;;;;;;;;;;6137018;23;20033;-95
2021/08/15 03:22:59;;;;;;;7.18;3.65;;;;;;;;;;6133750;23;20018;-95
2021/08/15 03:25:27;;;;;;;10.23;3.47;;;;;;;;;;6135202;23;20072;-96
2021/08/15 03:27:53;;;;;;;23.77;4.18;;;;;;;;;;6110128;23;20006;-95
2021/08/15 03:30:19;;;;;;;11.70;5.30;;;;;;;;;;6135165;23;20013;-96
2021/08/15 03:32:46;;;;;;;10.80;3.72;;;;;;;;;;6134651;23;20062;-96
2021/08/15 03:35:15;;;;;;;10.35;4.47;;;;;;;;;;6109551;23;20024;-96
2021/08/15 03:37:42;;;;;;;9.02;4.13;;;;;;;;;;6133812;23;20369;-96
2021/08/15 03:40:09;;;;;;;7.97;3.45;;;;;;;;;;6134675;23;20022;-96
2021/08/15 03:42:39;;;;;;;9.93;5.45;;;;;;;;;;6135256;23;20013;-96
2021/08/15 03:45:10;;;;;;;11.02;4.13;;;;;;;;;;6134815;23;20006;-96
2021/08/15 03:47:59;;;;;;;7.40;3.85;;;;;;;;;;6125604;23;20013;-96
2021/08/15 03:50:31;;;;;;;12.55;4.05;;;;;;;;;;6139197;23;20006;-96
2021/08/15 03:52:58;;;;;;;10.38;5.25;;;;;;;;;;6138885;23;20005;-96
2021/08/15 03:55:27;;;;;;;7.43;3.78;;;;;;;;;;6135877;23;20006;-96
2021/08/15 03:58:11;;;;;;;19.20;4.30;;;;;;;;;;6138472;23;20079;-95
2021/08/15 04:00:56;;;;;;;8.57;3.78;;;;;;;;;;6139106;23;20002;-96
2021/08/15 04:03:31;;;;;;;12.52;4.20;;;;;;;;;;6136752;23;20042;-96
2021/08/15 04:06:00;;;;;;;13.90;4.00;;;;;;;;;;6136424;23;20029;-96
2021/08/15 04:08:27;;;;;;;10.40;4.55;;;;;;;;;;6138224;23;20449;-95
2021/08/15 04:10:58;;;;;;;14.10;4.70;;;;;;;;;;6135269;23;20006;-95
2021/08/15 04:13:27;;;;;;;20.52;4.95;;;;;;;;;;6138089;23;20010;-96
2021/08/15 04:15:53;;;;;;;7.45;4.18;;;;;;;;;;6137878;23;20074;-95
2021/08/15 04:18:22;;;;;;;9.50;4.05;;;;;;;;;;6133679;23;20018;-95
2021/08/15 04:20:49;;;;;;;13.82;4.53;;;;;;;;;;6110195;23;20090;-96
2021/08/15 04:23:23;;;;;;;16.75;6.50;;;;;;;;;;6141321;23;20393;-96
2021/08/15 04:25:54;;;;;;;15.40;6.93;;;;;;;;;;6133309;23;20006;-96
2021/08/15 04:31:14;;;;;;;13.40;5.60;;;;;;;;;;6137792;23;20073;-96
2021/08/15 04:33:41;;;;;;;;;;;24.20;73.10;;;;;;6136522;23;20010;-96
2021/08/15 04:36:07;;;;;;;8.90;4.30;;;;;;;;;;6106313;23;19901;-95
2021/08/15 04:38:33;;;;;;;9.50;4.03;;;;;;;;;;6133044;23;20005;-96
2021/08/15 04:41:00;;;;;;;10.05;5.45;;;;;;;;;;6131918;23;20009;-96
2021/08/15 04:43:27;;;;;;;12.23;4.25;;;;;;;;;;6133682;23;20020;-95
2021/08/15 04:46:11;;;;;;;11.13;4.80;;;;;;;;;;6136289;23;20020;-96
2021/08/15 04:48:46;;;;;;;9.27;4.28;;;;;;;;;;6135409;23;20033;-95
2021/08/15 04:51:23;;;;;;;9.25;4.00;;;;;;;;;;6133764;23;20005;-95
2021/08/15 04:53:55;;;;;;;21.63;4.47;;;;;;;;;;6134236;23;20012;-96
2021/08/15 04:56:30;;;;;;;7.75;3.75;;;;;;;;;;6115062;23;20020;-95
2021/08/15 04:59:24;;;;;;;7.72;4.30;;;;;;;;;;6118647;23;20006;-95
2021/08/15 05:01:52;;;;;;;7.07;3.50;;;;;;;;;;6093417;23;20014;-96
2021/08/15 05:04:23;;;;;;;6.45;5.40;;;;;;;;;;6143228;23;20017;-96
2021/08/15 05:06:54;;;;;;;13.52;4.53;;;;;;;;;;6139545;23;20494;-96
2021/08/15 05:09:24;;;;;;;8.77;3.97;;;;;;;;;;6113966;23;20010;-96
2021/08/15 05:11:54;;;;;;;10.05;3.80;;;;;;;;;;6136622;23;20463;-96
2021/08/15 05:14:20;;;;;;;14.82;6.05;;;;;;;;;;6139444;23;20006;-95
2021/08/15 05:16:53;;;;;;;9.57;4.80;;;;;;;;;;6135261;23;20005;-96
2021/08/15 05:19:19;;;;;;;10.93;4.15;;;;;;;;;;6137315;23;20005;-95
2021/08/15 05:21:47;;;;;;;7.65;5.15;;;;;;;;;;6110131;23;20078;-96
2021/08/15 05:24:13;;;;;;;15.07;5.13;;;;;;;;;;6114866;23;20014;-96
2021/08/15 05:26:43;;;;;;;6.85;4.20;;;;;;;;;;6140729;23;20030;-96
2021/08/15 05:29:20;;;;;;;10.63;4.78;;;;;;;;;;6140617;23;20010;-95
2021/08/15 05:32:04;;;;;;;8.30;3.47;;;;;;;;;;6069788;23;20006;-96
2021/08/15 05:34:40;;;;;;;8.90;4.07;;;;;;;;;;6044425;23;20002;-96
2021/08/15 05:37:06;;;;;;;13.45;5.15;;;;;;;;;;6135711;23;20790;-96
2021/08/15 05:39:34;;;;;;;8.00;4.25;;;;;;;;;;6133818;23;20013;-95
2021/08/15 05:42:02;;;;;;;8.82;4.35;;;;;;;;;;6128492;23;20035;-96
2021/08/15 05:44:49;;;;;;;9.93;4.03;;;;;;;;;;6129812;23;20020;-96
2021/08/15 05:47:24;;;;;;;14.68;3.90;;;;;;;;;;6136183;23;20002;-96
2021/08/15 05:49:51;;;;;;;10.30;4.00;;;;;;;;;;6084437;23;20028;-96
2021/08/15 05:52:17;;;;;;;7.88;4.35;;;;;;;;;;6139594;23;20022;-95
2021/08/15 05:54:45;;;;;;;12.93;5.37;;;;;;;;;;6139319;23;20516;-95
2021/08/15 05:57:11;;;;;;;11.60;4.03;;;;;;;;;;6139612;23;20002;-95
2021/08/15 05:59:38;;;;;;;9.05;4.30;;;;;;;;;;6136301;23;20002;-95
2021/08/15 06:02:04;;;;;;;6.72;4.72;;;;;;;;;;6136095;23;20021;-96
2021/08/15 06:04:31;;;;;;;7.00;4.70;;;;;;;;;;6132917;23;19998;-96
2021/08/15 06:06:57;;;;;;;5.32;3.83;;;;;;;;;;6133596;23;20005;-95
2021/08/15 06:09:23;;;;;;;7.50;4.05;;;;;;;;;;6131767;23;20010;-95
2021/08/15 06:11:50;;;;;;;13.25;4.38;;;;;;;;;;6130456;23;20085;-96
2021/08/15 06:14:16;;;;;;;12.52;4.93;;;;;;;;;;6134225;23;20508;-95
2021/08/15 06:16:42;;;;;;;16.27;5.07;;;;;;;;;;6108500;23;20014;-96
2021/08/15 06:19:08;;;;;;;14.13;5.15;;;;;;;;;;6107476;23;20226;-95
2021/08/15 06:21:35;;;;;;;10.10;4.30;;;;;;;;;;6130269;23;20006;-95
2021/08/15 06:24:01;;;;;;;10.10;4.18;;;;;;;;;;6131530;23;20006;-96
2021/08/15 06:26:28;;;;;;;11.67;4.03;;;;;;;;;;6131561;23;20002;-95
2021/08/15 06:28:54;;;;;;;7.43;3.58;;;;;;;;;;6130209;23;20016;-96
2021/08/15 06:31:21;;;;;;;12.15;5.70;;;;;;;;;;6129419;23;20357;-95
2021/08/15 06:33:47;;;;;;;9.05;5.35;;;;;;;;;;6127903;23;20002;-95
2021/08/15 06:36:13;;;;;;;6.45;4.10;;;;;;;;;;6129749;23;20006;-95
2021/08/15 06:38:39;;;;;;;6.20;4.43;;;;;;;;;;6129465;23;20093;-95
2021/08/15 06:41:05;;;;;;;13.60;4.60;;;;;;;;;;6128210;23;20006;-95
2021/08/15 06:43:31;;;;;;;7.82;3.55;;;;;;;;;;6128346;23;20022;-95
2021/08/15 06:45:58;;;;;;;12.30;4.50;;;;;;;;;;6126552;23;20002;-95
2021/08/15 06:48:24;;;;;;;8.70;4.85;;;;;;;;;;6128817;23;20020;-95
2021/08/15 06:50:57;;;;;;;9.82;5.35;;;;;;;;;;6128418;23;19998;-95
2021/08/15 06:53:23;;;;;;;9.68;4.50;;;;;;;;;;6128693;23;20010;-95
2021/08/15 06:55:49;;;;;;;9.73;5.93;;;;;;;;;;6128521;23;20006;-95
2021/08/15 06:58:16;;;;;;;16.13;5.45;;;;;;;;;;6129734;23;20029;-95
2021/08/15 07:00:42;;;;;;;9.17;6.23;;;;;;;;;;6126651;23;20006;-94
2021/08/15 07:03:08;;;;;;;21.02;5.93;;;;;;;;;;6129016;23;20327;-96
2021/08/15 07:05:34;;;;;;;13.13;4.20;;;;;;;;;;6126529;23;20033;-96
2021/08/15 07:08:00;;;;;;;12.30;5.40;;;;;;;;;;6129426;23;20002;-94
2021/08/15 07:10:27;;;;;;;27.33;5.20;;;;;;;;;;6130711;23;20057;-94
2021/08/15 07:12:53;;;;;;;11.55;3.95;;;;;;;;;;6128537;23;20006;-96
2021/08/15 07:15:20;;;;;;;9.95;4.25;;;;;;;;;;6129242;23;20322;-95
2021/08/15 07:17:46;;;;;;;11.95;4.03;;;;;;;;;;6127882;23;20029;-96
2021/08/15 07:20:13;;;;;;;10.18;4.30;;;;;;;;;;6127915;23;20005;-96
2021/08/15 07:22:39;;;;;;;12.43;5.93;;;;;;;;;;6128255;23;20056;-96
2021/08/15 07:25:05;;;;;;;10.02;3.88;;;35.10;47.40;;;;;;6126231;23;19998;-95
2021/08/15 07:27:32;;;;;;;10.25;4.50;;;;;;;;;;6103633;23;20342;-96
2021/08/15 07:29:58;;;;;;;16.58;5.15;;;;;;;;;;6127877;23;20008;-95
2021/08/15 07:32:24;;;;;;;10.65;4.70;;;;;;;;;;6130753;23;20013;-95
2021/08/15 07:34:50;;;;;;;7.20;3.47;;;;;;;;;;6127759;23;20005;-96
2021/08/15 07:37:16;;;;;;;10.82;3.38;;;;;;;;;;6128705;23;20013;-94
2021/08/15 07:39:43;;;;;;;11.27;3.90;;;;;;;;;;6128482;23;20006;-96
2021/08/15 07:42:08;;;;;;;;;;;38.60;39.80;;;;;;6128752;23;20433;-95
2021/08/15 07:44:34;;;;;;;10.95;3.53;;;;;;;;;;6103086;23;19901;-95
2021/08/15 07:47:01;;;;;;;9.43;5.57;;;;;;;;;;6130478;23;20006;-95
2021/08/15 07:49:27;;;;;;;11.18;3.47;;;;;;;;;;6128777;23;20026;-95
2021/08/15 07:51:53;;;;;;;9.13;5.15;;;;;;;;;;6128912;23;20009;-95
2021/08/15 07:54:19;;;;;;;13.57;3.90;;;;;;;;;;6129933;23;20006;-95
2021/08/15 07:56:45;;;;;;;19.30;4.40;;;;;;;;;;6128802;23;20010;-96
2021/08/15 07:59:12;;;;;;;7.60;3.20;;;;;;;;;;6126454;23;20516;-95
2021/08/15 08:01:38;;;;;;;8.98;3.63;;;;;;;;;;6128422;23;20433;-96
2021/08/15 08:04:05;;;;;;;;;;;40.40;34.60;;;;;;6130492;23;20013;-96
2021/08/15 08:06:31;;;;;;;9.05;3.60;;;;;;;;;;6128478;23;19912;-95
2021/08/15 08:08:58;;;;;;;10.48;3.08;;;;;;;;;;6127010;23;20433;-96
2021/08/15 08:11:24;;;;;;;4.78;3.08;;;;;;;;;;6102362;23;20438;-96
2021/08/15 08:13:50;;;;;;;12.60;3.40;;;;;;;;;;6128214;23;20005;-93
2021/08/15 08:16:17;;;;;;;7.15;3.15;;;;;;;;;;6130616;23;20002;-93
2021/08/15 08:18:44;;;;;;;8.23;3.58;;;;;;;;;;6125779;23;20025;-92
2021/08/15 08:21:10;;;;;;;8.50;3.72;;;;;;;;;;6129404;23;20005;-95
2021/08/15 08:23:36;;;;;;;;;;;41.20;33.80;;;;;;6127383;23;20065;-94
2021/08/15 08:26:02;;;;;;;11.27;3.45;;;;;;;;;;6104213;23;19901;-95
2021/08/15 08:28:28;;;;;;;11.05;3.65;;;;;;;;;;6130111;23;20739;-95
2021/08/15 08:30:56;;;;;;;12.13;3.25;;;;;;;;;;6130939;23;20010;-95
2021/08/15 08:33:23;;;;;;;8.52;3.17;;;;;;;;;;6131339;23;20045;-96
2021/08/15 08:35:52;;;;;;;11.68;4.70;;;;;;;;;;6127914;23;20006;-95
2021/08/15 08:38:18;;;;;;;10.32;3.63;;;;;;;;;;6128833;23;20441;-96
2021/08/15 08:40:47;;;;;;;11.63;4.07;;;;;;;;;;6107201;23;20013;-96
2021/08/15 08:43:13;;;;;;;4.50;2.83;;;;;;;;;;6130393;23;20014;-96
2021/08/15 08:45:41;;;;;;;10.07;4.70;;;;;;;;;;6129549;23;20137;-96
2021/08/15 08:48:07;;;;;;;8.20;3.10;;;;;;;;;;6131691;23;20085;-96
2021/08/15 08:50:33;;;;;;;;;;;41.80;33.20;;;;;;6128513;23;20081;-94
2021/08/15 08:53:02;;;;;;;6.47;3.92;;;;;;;;;;6131007;23;20332;-95
2021/08/15 08:55:28;;;;;;;15.32;4.53;;;;;;;;;;6129160;23;20122;-95
2021/08/15 08:57:54;;;;;;;8.75;3.40;;;;;;;;;;6128606;23;20006;-95
2021/08/15 09:00:20;;;;;;;20.38;4.93;;;;;;;;;;6129636;23;20005;-94
2021/08/15 09:02:46;;;;;;;8.30;2.88;;;;;;;;;;6128299;23;20028;-95
2021/08/15 09:05:12;;;;;;;10.95;3.90;;;;;;;;;;6129173;23;20441;-95
2021/08/15 09:07:42;;;;;;;10.13;4.05;;;;;;;;;;6129116;23;20006;-95
2021/08/15 09:10:12;;;;;;;3.85;2.60;;;;;;;;;;6127306;23;20084;-94
2021/08/15 09:12:39;;;;;;;10.90;4.25;;;;;;;;;;6127979;23;20008;-95
2021/08/15 09:15:07;;;;;;;10.48;3.25;;;;;;;;;;6129690;23;20030;-96
2021/08/15 09:17:34;;;;;;;13.55;4.47;;;;;;;;;;6130745;23;20022;-96
2021/08/15 09:20:00;;;;;;;19.25;4.45;;;;;;;;;;6132014;23;20017;-95
2021/08/15 09:22:27;;;;;;;;;;;39.90;35.40;;;;;;6130394;23;20013;-96
2021/08/15 09:24:53;;;;;;;9.50;3.20;;;;;;;;;;6129439;23;19976;-95
2021/08/15 09:27:25;;;;;;;8.02;4.05;;;;;;;;;;6130733;23;20057;-96
2021/08/15 09:30:12;;;;;;;7.10;3.10;;;;;;;;;;6131415;23;20002;-94
2021/08/15 09:32:43;;;;;;;11.20;3.33;;;;;;;;;;6127524;23;20006;-96
2021/08/15 09:35:16;;;;;;;11.45;2.88;;;;;;;;;;6131929;23;20001;-96
2021/08/15 09:37:53;;;;;;;7.10;3.65;;;;;;;;;;6132400;23;20025;-95
2021/08/15 09:40:23;;;;;;;9.10;3.13;;;;;;;;;;6134872;23;20026;-96
2021/08/15 09:42:50;;;;;;;5.90;2.75;;;;;;;;;;6106317;23;20018;-95
2021/08/15 09:45:36;;;;;;;11.85;4.25;;;;;;;;;;6129648;23;20056;-96
2021/08/15 09:48:25;;;;;;;9.95;4.22;;;39.30;36.10;;;;;;6105178;23;20010;-96
2021/08/15 09:51:23;;;;;;;15.32;4.28;;;;;;;;;;6132847;23;20010;-96
2021/08/15 09:53:55;;;;;;;8.45;4.28;;;;;;;;;;6044519;23;20031;-95
2021/08/15 09:56:38;;;;;;;5.32;2.80;;;;;;;;;;6044717;23;20003;-95
2021/08/15 09:59:13;;;;;;;5.35;3.30;;;;;;;;;;6044898;23;20011;-95
2021/08/15 10:01:44;;;;;;;5.53;3.35;;;;;;;;;;6042004;23;20087;-96
2021/08/15 10:04:11;;;;;;;7.50;3.28;;;;;;;;;;6043369;23;20071;-95
2021/08/15 10:06:38;;;;;;;5.60;3.47;;;;;;;;;;6022556;23;20075;-95
2021/08/15 10:09:05;;;;;;;12.65;3.22;;;;;;;;;;6045014;23;20007;-96
2021/08/15 10:11:35;;;;;;;13.00;3.33;;;;;;;;;;6021833;23;20086;-96
2021/08/15 10:14:06;;;;;;;12.32;3.55;;;;;;;;;;6023176;23;20011;-95
2021/08/15 10:16:37;;;;;;;14.75;3.08;;;;;;;;;;6039847;23;20007;-96
2021/08/15 10:19:13;;;;;;;7.22;3.58;;;;;;;;;;6021526;23;20015;-95
2021/08/15 10:21:41;;;;;;;9.25;2.72;;;;;;;;;;6038513;23;20011;-95
2021/08/15 10:24:08;;;;;;;13.18;3.50;;;;;;;;;;6044300;23;20011;-95
2021/08/15 10:26:42;;;;;;;10.27;3.58;;;;;;;;;;6047251;23;20003;-96
2021/08/15 10:29:27;;;;;;;6.50;2.88;;;;;;;;;;6082901;23;20006;-95
2021/08/15 10:32:13;;;;;;;8.48;3.42;;;;;;;;;;6135989;23;20073;-96
2021/08/15 10:34:51;;;;;;;8.70;4.43;;;;;;;;;;6135666;23;20002;-96
2021/08/15 10:37:41;;;;;;;6.72;4.30;;;;;;;;;;6138597;23;20012;-96
2021/08/15 10:40:40;;;;;;;8.55;3.25;;;36.20;38.40;;;;;;6132477;23;20065;-96
2021/08/15 10:43:29;;;;;;;6.68;3.10;;;;;;;;;;6134176;23;20073;-96
2021/08/15 10:46:08;;;;;;;5.75;3.85;;;;;;;;;;6133003;23;20528;-96
2021/08/15 10:49:03;;;;;;;15.38;3.67;;;;;;;;;;6134523;23;20006;-96
2021/08/15 10:51:49;;;;;;;10.18;3.90;;;;;;;;;;6111182;23;20014;-96
2021/08/15 10:54:27;;;;;;;;;;;36.20;41.20;;;;;;6135052;23;20038;-96
2021/08/15 10:56:54;;;;;;;9.68;2.72;;;;;;;;;;6132599;23;19901;-96
2021/08/15 10:59:40;;;;;;;;;;;36.50;40.60;;;;;;6133802;23;20006;-96
2021/08/15 11:02:17;;;;;;;7.63;3.10;;;;;;;;;;6141563;23;19995;-96
2021/08/15 11:04:56;;;;;;;7.28;2.95;;;;;;;;;;6132783;23;20036;-96
2021/08/15 11:07:33;;;;;;;13.63;3.95;;;;;;;;;;6134330;23;20010;-96
2021/08/15 11:10:03;;;;;;;;;;;35.90;41.70;;;;;;6139473;23;20002;-96
2021/08/15 11:12:30;;;;;;;10.80;3.63;;;;;;;;;;6114291;23;19905;-96
2021/08/15 11:15:01;;;;;;;13.25;4.55;;;;;;;;;;6138752;23;20065;-95
2021/08/15 11:17:29;;;;;;;6.55;4.70;;;;;;;;;;6133228;23;20044;-96
2021/08/15 11:20:24;;;;;;;9.48;3.40;;;;;;;;;;6107742;23;20015;-96
2021/08/15 11:23:06;;;;;;;6.03;4.27;;;;;;;;;;6068522;23;20006;-96
2021/08/15 11:25:33;;;;;;;7.47;3.75;;;;;;;;;;6105213;23;20270;-93
2021/08/15 11:28:00;;;;;;;5.50;3.60;;;;;;;;;;6088664;23;20002;-96
2021/08/15 11:30:27;;;;;;;8.80;4.40;;;;;;;;;;6110189;23;20007;-96
2021/08/15 11:32:53;;;;;;;10.30;4.63;;;;;;;;;;6108048;23;20002;-95
2021/08/15 11:35:20;;;;;;;13.13;3.92;;;;;;;;;;6089219;23;20014;-95
2021/08/15 11:37:54;;;;;;;14.52;3.83;;;;;;;;;;6113457;23;19998;-96
2021/08/15 11:40:25;;;;;;;10.60;3.55;;;;;;;;;;6052397;23;20045;-96
2021/08/15 11:43:28;;;;;;;6.05;3.08;;;;;;;;;;6103768;23;20008;-95
2021/08/15 11:45:56;;;;;;;13.07;4.30;;;;;;;;;;6100597;23;20006;-96
2021/08/15 11:48:36;;;;;;;17.02;4.78;;;;;;;;;;6108770;23;20018;-96
2021/08/15 11:51:13;;;;;;;8.95;3.30;;;;;;;;;;6107744;23;20064;-96
2021/08/15 11:53:43;;;;;;;12.40;4.10;;;;;;;;;;6105436;23;20003;-95
2021/08/15 11:56:38;;;;;;;15.32;4.45;;;;;;;;;;6086271;23;20014;-95
2021/08/15 11:59:04;;;;;;;15.18;3.72;;;;;;;;;;6104951;23;20062;-95
2021/08/15 12:01:30;;;;;;;11.57;4.40;;;;;;;;;;6078682;23;20794;-94
2021/08/15 12:03:58;;;;;;;13.52;4.03;;;;;;;;;;6098435;23;20006;-96
2021/08/15 12:06:24;;;;;;;9.63;3.85;;;;;;;;;;6103702;23;20028;-94
2021/08/15 12:08:50;;;;;;;8.75;5.13;;;;;;;;;;6054510;23;20389;-94
2021/08/15 12:11:24;;;;;;;6.28;3.53;;;;;;;;;;6102898;23;20337;-95
2021/08/15 12:13:52;;;;;;;11.35;3.75;;;;;;;;;;6103550;23;20002;-94
2021/08/15 12:16:36;;;;;;;8.02;4.75;;;;;;;;;;6082229;23;20037;-95
2021/08/15 12:19:04;;;;;;;9.18;3.97;;;;;;;;;;6126592;23;20021;-96
2021/08/15 12:21:41;;;;;;;8.82;3.30;;;;;;;;;;6141126;23;20306;-95
2021/08/15 12:24:14;;;;;;;14.85;4.43;;;;;;;;;;6139739;23;20033;-96
2021/08/15 12:26:44;;;;;;;8.10;4.80;;;;;;;;;;6142837;23;20033;-95
2021/08/15 12:29:26;;;;;;;5.30;2.40;;;;;;;;;;6138218;23;20010;-95
2021/08/15 12:32:22;;;;;;;10.90;4.03;;;34.70;43.10;;;;;;6135950;23;20010;-96
2021/08/15 12:35:05;;;;;;;9.60;4.47;;;;;;;;;;6137045;23;20010;-95
2021/08/15 12:38:00;;;;;;;8.40;3.03;;;;;;;;;;6147035;23;20009;-96
2021/08/15 12:40:29;;;;;;;8.67;3.90;;;;;;;;;;6165631;23;20072;-95
2021/08/15 12:43:10;;;;;;;9.20;3.67;;;;;;;;;;6134532;23;20013;-96
2021/08/15 12:45:40;;;;;;;8.75;3.67;;;;;;;;;;6158719;23;20080;-94
2021/08/15 12:48:07;;;;;;;5.15;3.35;;;;;;;;;;6139916;23;20013;-96
2021/08/15 12:50:37;;;;;;;;;;;34.50;41.70;;;;;;6137850;23;20006;-96
2021/08/15 12:53:21;;;;;;;7.22;4.05;;;;;;;;;;6170694;23;19954;-95
2021/08/15 12:55:53;;;;;;;10.32;4.75;;;;;;;;;;6166702;23;20006;-95
2021/08/15 12:58:20;;;;;;;7.90;3.88;;;;;;;;;;6157547;23;20056;-95
2021/08/15 13:00:47;;;;;;;8.05;3.70;;;;;;;;;;6169326;23;20006;-95
2021/08/15 13:03:18;;;;;;;6.78;3.30;;;;;;;;;;6169278;23;20092;-95
2021/08/15 13:05:47;;;;;;;8.70;3.40;;;;;;;;;;6166805;23;20062;-95
2021/08/15 13:08:15;;;;;;;7.72;3.83;;;;;;;;;;6166384;23;19990;-95
2021/08/15 13:10:44;;;;;;;11.00;3.80;;;;;;;;;;6170282;23;20061;-95
2021/08/15 13:13:14;;;;;;;6.05;3.65;;;;;;;;;;6161937;23;20438;-95
2021/08/15 13:15:40;;;;;;;;;;;34.10;42.70;;;;;;6163623;23;20056;-94
2021/08/15 13:18:08;;;;;;;11.75;3.97;;;;;;;;;;6134474;23;19913;-96
2021/08/15 13:20:35;;;;;;;9.40;3.20;;;;;;;;;;6160491;23;20059;-95
2021/08/15 13:23:01;;;;;;;;;;;33.70;43.50;;;;;;6158430;23;20020;-95
2021/08/15 13:25:27;;;;;;;12.88;4.63;;;;;;;;;;6158715;23;19900;-95
2021/08/15 13:27:54;;;;;;;9.70;3.80;;;;;;;;;;6157294;23;20060;-94
2021/08/15 13:30:21;;;;;;;10.88;3.67;;;;;;;;;;6159328;23;20011;-95
2021/08/15 13:32:47;;;;;;;19.93;4.00;;;;;;;;;;6160270;23;20005;-95
2021/08/15 13:35:13;;;;;;;8.37;4.57;;;;;;;;;;6130881;23;20508;-95
2021/08/15 13:37:39;;;;;;;8.52;4.47;;;;;;;;;;6156833;23;20233;-96
2021/08/15 13:40:07;;;;;;;8.53;3.60;;;;;;;;;;6132272;23;20052;-94
2021/08/15 13:42:35;;;;;;;14.00;4.28;;;;;;;;;;6158042;23;20009;-96
2021/08/15 13:45:01;;;;;;;9.48;3.83;;;;;;;;;;6156340;23;20052;-94
2021/08/15 13:47:30;;;;;;;23.10;3.22;;;;;;;;;;6161980;23;20010;-95
2021/08/15 13:49:58;;;;;;;12.32;3.67;;;;;;;;;;6139856;23;20006;-95
2021/08/15 13:52:25;;;;;;;7.43;4.25;;;;;;;;;;6164465;23;20006;-94
2021/08/15 13:54:55;;;;;;;9.33;3.40;;;;;;;;;;6166953;23;20006;-96
2021/08/15 13:57:25;;;;;;;13.65;5.72;;;;;;;;;;6137920;23;20586;-94
2021/08/15 13:59:53;;;;;;;9.48;3.95;;;;;;;;;;6170752;23;20005;-94
2021/08/15 14:02:22;;;;;;;11.73;4.18;;;;;;;;;;6165885;23;20080;-96
2021/08/15 14:05:12;;;;;;;12.38;4.00;;;;;;;;;;6145372;23;20010;-96
2021/08/15 14:07:57;;;;;;;12.70;5.20;;;;;;;;;;6151967;23;20010;-95
2021/08/15 14:10:48;;;;;;;6.40;4.03;;;;;;;;;;6140479;23;20001;-96
2021/08/15 14:13:35;;;;;;;9.90;4.47;;;;;;;;;;6083215;23;20011;-96
2021/08/15 14:16:01;;;;;;;7.30;3.40;;;;;;;;;;6074747;23;20473;-95
2021/08/15 14:18:29;;;;;;;9.13;3.37;;;;;;;;;;6075447;23;20082;-95
2021/08/15 14:21:00;;;;;;;11.13;4.55;;;;;;;;;;6080296;23;20500;-95
2021/08/15 14:23:32;;;;;;;6.30;3.50;;;;;;;;;;6104404;23;20085;-96
2021/08/15 14:26:04;;;;;;;5.78;3.47;;;;;;;;;;6087905;23;20033;-96
2021/08/15 14:28:31;;;;;;;10.23;4.35;;;;;;;;;;6064710;23;20030;-95
2021/08/15 14:30:57;;;;;;;;;;;33.50;46.10;;;;;;6109836;23;20032;-95
2021/08/15 14:33:37;;;;;;;9.60;3.92;;;;;;;;;;6110939;23;19945;-95
2021/08/15 14:36:08;;;;;;;8.82;4.88;;;;;;;;;;6116647;23;20017;-96
2021/08/15 14:38:58;;;;;;;9.98;4.10;;;;;;;;;;6110778;23;20062;-96
2021/08/15 14:41:27;;;;;;;13.38;4.15;;;;;;;;;;6099450;23;20218;-96
2021/08/15 14:44:15;;;;;;;6.88;4.03;;;;;;;;;;6086607;23;20066;-94
2021/08/15 14:46:56;;;;;;;8.88;3.83;;;;;;;;;;6110614;23;20002;-95
2021/08/15 14:49:25;;;;;;;7.95;4.35;;;;;;;;;;6094284;23;20068;-95
2021/08/15 14:51:58;;;;;;;8.30;4.18;;;;;;;;;;6169053;23;20016;-96